Time;durP1;ratioP1;P1;durP2;ratioP2;P2;SDS_P1;SDS_P2;PMS_P1;PMS_P2;Temp;Humidity;BMP_temperature;BMP_pressure;BME280_temperature;BME280_humidity;BME280_pressure;Samples;Min_cycle;Max_cycle;Signal;HPM_P1;HPM_P2
2022/03/23 00:00:46;;;;;;;7.37;6.47;;;;;;;8.13;46.85;96572.41;4350337;32;20211;-61
2022/03/23 00:03:13;;;;;;;6.57;5.97;;;;;;;8.01;46.79;96568.31;4380512;32;20195;-62
2022/03/23 00:05:41;;;;;;;6.53;5.80;;;;;;;8.14;47.54;96565.28;4362780;32;20224;-62
2022/03/23 00:08:07;;;;;;;10.60;6.40;;;;;;;7.92;47.78;96567.91;4362836;32;20345;-62
2022/03/23 00:10:33;;;;;;;8.87;6.20;;;;;;;7.79;48.92;96566.44;4385376;32;20287;-62
2022/03/23 00:12:59;;;;;;;6.60;6.00;;;;;;;7.92;48.34;96567.91;4386753;32;20279;-62
2022/03/23 00:15:24;;;;;;;5.97;5.43;;;;;;;7.97;47.70;96565.34;4385002;32;20300;-62
2022/03/23 00:17:50;;;;;;;6.40;5.90;;;;;;;7.99;47.72;96570.38;4377170;32;20184;-62
2022/03/23 00:20:15;;;;;;;6.60;5.40;;;;;;;7.86;47.81;96561.78;4376975;32;20211;-61
2022/03/23 00:22:41;;;;;;;7.00;5.77;;;;;;;7.90;47.68;96562.09;4377500;32;20234;-62
2022/03/23 00:25:08;;;;;;;8.43;6.07;;;;;;;7.97;47.74;96560.06;4392361;32;20185;-61
2022/03/23 00:27:34;;;;;;;7.03;6.30;;;;;;;7.67;48.11;96557.06;4364463;32;20267;-62
2022/03/23 00:29:59;;;;;;;6.17;5.57;;;;;;;7.61;48.77;96555.37;4386525;32;20352;-62
2022/03/23 00:32:25;;;;;;;8.53;5.83;;;;;;;7.64;48.78;96560.19;4379276;32;20193;-61
2022/03/23 00:34:50;;;;;;;9.57;6.43;;;;;;;7.73;48.93;96564.78;4376338;32;20188;-61
2022/03/23 00:37:16;;;;;;;6.30;5.70;;;;;;;7.81;48.88;96566.22;4373062;32;20196;-61
2022/03/23 00:39:41;;;;;;;8.10;5.90;;;;;;;7.86;48.82;96561.00;4379310;32;20184;-61
2022/03/23 00:42:06;;;;;;;6.07;5.60;;;;;;;7.66;49.10;96555.44;4378257;32;20233;-62
2022/03/23 00:44:32;;;;;;;9.43;6.00;;;;;;;7.78;49.10;96551.66;4363442;32;20238;-62
2022/03/23 00:46:57;;;;;;;8.53;5.93;;;;;;;7.71;49.24;96550.22;4376575;32;20276;-61
2022/03/23 00:49:23;;;;;;;5.50;5.10;;;;;;;7.74;49.22;96553.16;4362997;32;20257;-62
2022/03/23 00:51:53;;;;;;;6.70;6.10;;;;;;;7.62;49.66;96554.34;4376410;32;20238;-62
2022/03/23 00:54:19;;;;;;;6.07;5.53;;;;;;;7.50;50.26;96557.06;4364921;32;20284;-62
2022/03/23 00:56:45;;;;;;;6.27;5.77;;;;;;;7.50;50.38;96551.78;4383942;32;20287;-61
2022/03/23 00:59:11;;;;;;;7.87;5.93;;;;;;;7.57;50.27;96553.22;4373115;32;20272;-61
2022/03/23 01:01:38;;;;;;;7.43;5.50;;;;;;;7.68;50.06;96545.44;4364408;32;20192;-61
2022/03/23 01:04:03;;;;;;;7.33;6.63;;;;;;;7.64;50.15;96546.97;4362896;32;20289;-61
2022/03/23 01:06:29;;;;;;;6.73;6.13;;;;;;;7.65;49.87;96546.72;4371610;32;20276;-62
2022/03/23 01:08:54;;;;;;;7.00;6.07;;;;;;;7.68;50.06;96546.25;4375413;32;20184;-61
2022/03/23 01:11:19;;;;;;;6.70;5.93;;;;;;;7.48;50.25;96549.38;4362730;32;20202;-62
2022/03/23 01:13:45;;;;;;;7.87;7.17;;;;;;;7.62;50.06;96549.84;4376762;32;20204;-61
2022/03/23 01:16:10;;;;;;;9.30;6.00;;;;;;;7.70;49.76;96544.12;4374835;32;20267;-61
2022/03/23 01:18:36;;;;;;;6.13;5.50;;;;;;;7.62;49.82;96549.06;4378145;32;20249;-61
2022/03/23 01:21:08;;;;;;;6.00;5.50;;;;;;;7.74;50.00;96552.38;4377235;32;20184;-62
2022/03/23 01:23:34;;;;;;;9.33;6.00;;;;;;;7.63;50.36;96556.72;4359591;32;20189;-62
2022/03/23 01:25:59;;;;;;;5.80;5.30;;;;;;;7.62;50.70;96549.06;4370338;32;20302;-61
2022/03/23 01:28:24;;;;;;;6.47;5.50;;;;;;;7.53;51.03;96554.75;4379519;32;20268;-62
2022/03/23 01:30:50;;;;;;;6.27;5.67;;;;;;;7.51;51.18;96543.63;4378099;32;20207;-62
2022/03/23 01:33:15;;;;;;;9.47;6.07;;;;;;;7.43;51.32;96551.97;4390797;32;20207;-62
2022/03/23 01:35:41;;;;;;;6.17;5.53;;;;;;;7.44;51.45;96544.84;4385130;32;20228;-61
2022/03/23 01:38:06;;;;;;;6.57;5.33;;;;;;;7.34;51.95;96548.13;4389814;32;20263;-63
2022/03/23 01:40:31;;;;;;;7.33;6.17;;;;;;;7.14;52.40;96550.47;4376718;32;20197;-61
2022/03/23 01:42:57;;;;;;;6.57;5.93;;;;;;;7.15;52.88;96549.44;4388779;32;20275;-61
2022/03/23 01:45:22;;;;;;;6.13;5.63;;;;;;;7.12;53.15;96544.62;4376601;32;20192;-61
2022/03/23 01:47:47;;;;;;;7.03;6.17;;;;;;;7.33;52.44;96545.72;4386649;32;20188;-62
2022/03/23 01:50:13;;;;;;;6.10;5.50;;;;;;;7.32;52.56;96544.94;4389359;32;20184;-61
2022/03/23 01:52:39;;;;;;;6.67;6.07;;;;;;;7.12;53.26;96550.69;4377690;32;20253;-62
2022/03/23 01:55:11;;;;;;;6.70;6.07;;;;;;;7.09;53.04;96545.09;4362220;32;20195;-62
2022/03/23 01:57:39;;;;;;;7.87;5.53;;;;;;;7.22;52.72;96545.59;4381606;32;20207;-62
2022/03/23 02:00:07;;;;;;;6.47;5.67;;;;;;;6.96;53.12;96556.00;4376793;32;20359;-62
2022/03/23 02:02:32;;;;;;;6.80;6.13;;;;;;;6.92;53.35;96547.75;4376339;32;20288;-62
2022/03/23 02:04:57;;;;;;;6.20;5.63;;;;;;;6.79;53.83;96543.59;4372245;32;20285;-62
2022/03/23 02:07:24;;;;;;;6.23;5.20;;;;;;;6.86;53.88;96546.84;4388624;32;20196;-62
2022/03/23 02:09:50;;;;;;;7.37;5.30;;;;;;;6.75;54.14;96547.75;4375813;32;20243;-62
2022/03/23 02:12:15;;;;;;;6.23;5.60;;;;;;;6.55;54.59;96547.41;4362281;32;20296;-61
2022/03/23 02:14:41;;;;;;;6.33;5.03;;;;;;;6.78;53.77;96549.91;4361962;32;20188;-61
2022/03/23 02:17:06;;;;;;;6.20;5.60;;;;;;;6.73;53.70;96549.81;4390189;32;20184;-62
2022/03/23 02:19:32;;;;;;;7.20;6.17;;;;;;;6.49;54.77;96545.69;4379137;32;20203;-62
2022/03/23 02:21:58;;;;;;;6.23;5.63;;;;;;;6.70;54.17;96552.91;4385916;32;20259;-61
2022/03/23 02:24:26;;;;;;;8.10;5.37;;;;;;;6.40;54.98;96547.94;4356176;32;20299;-62
2022/03/23 02:26:52;;;;;;;6.20;5.60;;;;;;;6.30;55.36;96539.03;4387074;32;20207;-61
2022/03/23 02:29:19;;;;;;;6.03;5.47;;;;;;;6.69;54.27;96546.03;4375508;32;20288;-62
2022/03/23 02:31:44;;;;;;;5.83;5.33;;;;;;;6.47;54.50;96545.12;4362339;32;20307;-61
2022/03/23 02:34:10;;;;;;;5.73;5.23;;;;;;;6.60;54.48;96544.84;4371685;32;20293;-61
2022/03/23 02:36:35;;;;;;;5.80;5.40;;;;;;;6.40;55.38;96542.66;4363389;32;20197;-61
2022/03/23 02:39:01;;;;;;;6.47;5.97;;;;;;;6.54;55.37;96545.78;4381813;32;20207;-62
2022/03/23 02:41:28;;;;;;;5.47;5.07;;;;;;;6.53;55.30;96541.56;4370191;32;20207;-62
2022/03/23 02:43:53;;;;;;;5.60;5.20;;;;;;;6.40;55.38;96541.88;4389415;32;20177;-62
2022/03/23 02:46:19;;;;;;;6.17;5.40;;;;;;;6.51;55.14;96535.72;4367610;32;20501;-62
2022/03/23 02:48:46;;;;;;;6.00;5.40;;;;;;;6.55;55.09;96535.00;4375896;32;20185;-61
2022/03/23 02:51:12;;;;;;;6.23;5.63;;;;;;;6.58;54.92;96535.59;4373975;32;20197;-61
2022/03/23 03:02:21;;;;;;;6.13;5.63;;;;;;;6.14;56.44;96536.12;4364543;32;20322;-62
2022/03/23 03:04:49;;;;;;;6.97;5.30;;;;;;;6.06;56.87;96539.09;4361580;32;20269;-62
2022/03/23 03:07:15;;;;;;;6.30;5.60;;;;;;;6.18;56.03;96539.88;4362277;32;20301;-61
2022/03/23 03:09:41;;;;;;;5.30;4.90;;;;;;;6.16;56.26;96539.31;4375762;32;20294;-62
2022/03/23 03:12:07;;;;;;;5.50;5.10;;;;;;;5.94;56.81;96542.81;4376294;32;20190;-62
2022/03/23 03:14:33;;;;;;;6.13;5.53;;;;;;;5.85;56.99;96537.09;4368684;32;20189;-62
2022/03/23 03:16:58;;;;;;;6.03;5.53;;;;;;;5.94;56.67;96551.53;4368281;32;20276;-61
2022/03/23 03:19:24;;;;;;;5.60;5.20;;;;;;;5.87;56.84;96548.19;4361706;32;20193;-61
2022/03/23 03:21:49;;;;;;;6.00;5.47;;;;;;;5.93;56.37;96551.75;4377706;32;20192;-61
2022/03/23 03:24:14;;;;;;;7.13;5.93;;;;;;;6.07;55.97;96545.97;4379675;32;20215;-61
2022/03/23 03:26:40;;;;;;;6.10;5.43;;;;;;;6.12;55.56;96543.44;4379510;32;20218;-61
2022/03/23 03:29:05;;;;;;;5.57;4.80;;;;;;;6.03;55.77;96539.56;4391256;32;20196;-61
2022/03/23 03:31:31;;;;;;;6.03;5.40;;;;;;;6.03;56.04;96547.47;4392233;32;20185;-61
2022/03/23 03:33:57;;;;;;;5.17;4.83;;;;;;;6.05;55.74;96537.50;4373414;32;20268;-61
2022/03/23 03:36:22;;;;;;;6.00;5.60;;;;;;;6.06;55.69;96541.75;4378136;32;20283;-62
2022/03/23 03:38:48;;;;;;;5.67;5.17;;;;;;;6.10;55.70;96548.16;4390217;32;20181;-62
2022/03/23 03:41:13;;;;;;;5.97;5.47;;;;;;;5.89;56.20;96548.78;4377556;32;20184;-62
2022/03/23 03:43:39;;;;;;;5.23;4.87;;;;;;;5.40;58.15;96558.00;4376789;32;20197;-61
2022/03/23 03:46:07;;;;;;;5.23;4.77;;;;;;;4.97;59.52;96558.31;4372553;32;20231;-62
2022/03/23 03:48:34;;;;;;;5.47;5.00;;;;;;;5.23;59.20;96552.59;4373552;32;20269;-62
2022/03/23 03:51:00;;;;;;;6.77;4.97;;;;;;;5.43;58.16;96550.41;4378199;32;20360;-61
2022/03/23 03:53:26;;;;;;;8.23;5.43;;;;;;;5.43;58.00;96553.06;4378262;32;20307;-62
2022/03/23 03:55:51;;;;;;;6.33;5.40;;;;;;;5.32;58.46;96556.50;4376167;32;20207;-61
2022/03/23 03:58:17;;;;;;;5.57;5.17;;;;;;;5.37;58.32;96556.63;4363962;32;20238;-62
2022/03/23 04:00:43;;;;;;;5.57;5.17;;;;;;;5.43;58.13;96550.41;4376103;32;20197;-61
2022/03/23 04:03:08;;;;;;;5.20;4.73;;;;;;;5.41;58.39;96549.03;4371144;32;20290;-62
2022/03/23 04:05:35;;;;;;;10.83;5.37;;;;;;;5.68;57.61;96557.25;4379696;32;20204;-62
2022/03/23 04:08:00;;;;;;;5.60;5.20;;;;;;;5.79;56.99;96552.00;4392614;32;20294;-62
2022/03/23 04:10:27;;;;;;;6.23;5.23;;;;;;;5.92;56.65;96544.88;4367499;32;20296;-62
2022/03/23 04:12:53;;;;;;;6.83;5.77;;;;;;;5.92;56.62;96555.41;4390322;32;20193;-62
2022/03/23 04:15:20;;;;;;;7.37;5.80;;;;;;;5.70;57.37;96552.56;4368609;32;20283;-62
2022/03/23 04:17:45;;;;;;;5.87;5.37;;;;;;;5.84;56.86;96554.72;4381243;32;20176;-62
2022/03/23 04:20:11;;;;;;;5.60;5.10;;;;;;;5.97;56.55;96558.97;4382319;32;20284;-61
2022/03/23 04:22:38;;;;;;;6.23;5.40;;;;;;;5.91;56.85;96557.25;4392210;32;20200;-62
2022/03/23 04:25:06;;;;;;;6.67;5.87;;;;;;;5.94;56.96;96553.34;4363473;32;20218;-62
2022/03/23 04:27:32;;;;;;;6.20;5.60;;;;;;;5.99;56.61;96556.91;4364262;32;20364;-62
2022/03/23 04:29:58;;;;;;;7.77;5.33;;;;;;;5.98;56.65;96551.88;4379356;32;20272;-62
2022/03/23 04:32:24;;;;;;;6.37;5.60;;;;;;;5.95;56.72;96554.97;4392070;32;20184;-62
2022/03/23 04:34:49;;;;;;;6.37;5.60;;;;;;;6.01;56.73;96561.94;4373049;32;20260;-62
2022/03/23 04:37:15;;;;;;;6.20;5.70;;;;;;;5.96;56.82;96562.63;4377944;32;20184;-62
2022/03/23 04:39:40;;;;;;;7.10;5.90;;;;;;;5.95;56.96;96566.28;4384649;32;20181;-62
2022/03/23 04:42:05;;;;;;;6.73;5.57;;;;;;;6.03;56.87;96568.53;4377397;32;20180;-61
2022/03/23 04:44:31;;;;;;;8.40;6.00;;;;;;;5.93;56.90;96573.63;4361100;32;20196;-62
2022/03/23 04:46:56;;;;;;;7.40;5.37;;;;;;;5.88;57.47;96565.59;4384671;32;20207;-61
2022/03/23 04:49:21;;;;;;;8.67;6.70;;;;;;;5.81;57.79;96570.19;4378878;32;20204;-62
2022/03/23 04:51:46;;;;;;;9.60;6.27;;;;;;;5.91;58.19;96582.78;4361089;32;20206;-62
2022/03/23 04:54:12;;;;;;;8.30;6.10;;;;;;;5.85;57.96;96587.09;4376044;32;20192;-62
2022/03/23 04:56:37;;;;;;;7.90;5.63;;;;;;;5.95;57.73;96587.37;4366515;32;20198;-62
2022/03/23 04:59:04;;;;;;;5.60;5.20;;;;;;;5.96;57.80;96588.97;4368612;32;20199;-61
2022/03/23 05:01:29;;;;;;;5.90;5.27;;;;;;;5.99;57.43;96588.50;4376246;32;20240;-62
2022/03/23 05:03:57;;;;;;;5.70;5.17;;;;;;;6.06;57.17;96589.16;4363048;32;20272;-62
2022/03/23 05:06:22;;;;;;;6.20;5.33;;;;;;;6.10;57.03;96590.28;4375372;32;20195;-62
2022/03/23 05:08:48;;;;;;;10.27;5.90;;;;;;;6.01;57.33;96581.19;4376841;32;20277;-62
2022/03/23 05:11:13;;;;;;;7.97;5.27;;;;;;;6.12;56.96;96590.06;4374940;32;20223;-61
2022/03/23 05:13:38;;;;;;;7.40;6.07;;;;;;;6.02;57.15;96587.25;4377917;32;20185;-62
2022/03/23 05:16:04;;;;;;;5.63;5.07;;;;;;;6.06;56.92;96588.34;4379537;32;20188;-61
2022/03/23 05:18:30;;;;;;;7.63;5.87;;;;;;;6.13;56.55;96584.56;4385034;32;20224;-62
2022/03/23 05:20:56;;;;;;;5.77;5.27;;;;;;;6.15;56.43;96589.59;4374499;32;20244;-62
2022/03/23 05:23:21;;;;;;;5.77;5.27;;;;;;;6.03;56.58;96594.87;4386808;32;20300;-62
2022/03/23 05:25:47;;;;;;;6.03;5.20;;;;;;;6.17;56.07;96590.97;4374041;32;20193;-62
2022/03/23 05:28:13;;;;;;;5.87;5.23;;;;;;;6.09;56.17;96599.22;4370120;32;20188;-62
2022/03/23 05:30:38;;;;;;;5.80;5.30;;;;;;;5.90;57.00;96602.25;4365473;32;20256;-62
2022/03/23 05:33:04;;;;;;;6.00;5.50;;;;;;;5.76;57.00;96605.12;4391265;32;20279;-62
2022/03/23 05:35:29;;;;;;;5.80;5.30;;;;;;;5.90;56.75;96610.16;4382726;32;20232;-62
2022/03/23 05:37:55;;;;;;;5.97;5.10;;;;;;;5.94;56.85;96598.12;4361882;32;20204;-62
2022/03/23 05:40:21;;;;;;;6.63;5.40;;;;;;;5.87;56.79;96606.91;4368906;32;20196;-62
2022/03/23 05:42:47;;;;;;;5.50;5.00;;;;;;;5.70;57.31;96605.22;4375625;32;20185;-62
2022/03/23 05:45:13;;;;;;;7.67;5.67;;;;;;;5.75;57.49;96613.22;4371164;32;20359;-62
2022/03/23 05:47:40;;;;;;;6.97;5.40;;;;;;;5.65;57.90;96608.53;4372664;32;20273;-62
2022/03/23 05:50:07;;;;;;;6.00;5.53;;;;;;;5.88;57.42;96607.72;4354850;32;20181;-63
2022/03/23 05:52:32;;;;;;;5.90;5.10;;;;;;;5.70;57.66;96605.22;4377816;32;20286;-62
2022/03/23 05:54:57;;;;;;;7.67;5.10;;;;;;;5.81;57.55;96618.38;4384306;32;20285;-62
2022/03/23 05:57:23;;;;;;;6.03;5.53;;;;;;;5.90;57.65;96613.59;4374010;32;20192;-62
2022/03/23 05:59:48;;;;;;;8.73;5.33;;;;;;;5.66;57.74;96609.34;4372966;32;20202;-63
2022/03/23 06:02:13;;;;;;;8.23;5.40;;;;;;;5.84;57.62;96610.00;4373454;32;20184;-62
2022/03/23 06:04:39;;;;;;;7.10;6.40;;;;;;;5.80;57.39;96608.09;4373703;32;20177;-62
2022/03/23 06:07:04;;;;;;;6.57;5.80;;;;;;;5.70;57.52;96618.38;4369893;32;20275;-63
2022/03/23 06:09:29;;;;;;;7.33;6.63;;;;;;;5.73;57.86;96624.00;4364856;32;20286;-62
2022/03/23 06:11:56;;;;;;;6.73;5.43;;;;;;;6.01;56.83;96614.63;4367271;32;20252;-62
2022/03/23 06:14:22;;;;;;;6.47;5.70;;;;;;;5.75;57.12;96619.31;4358435;32;20189;-62
2022/03/23 06:16:47;;;;;;;6.63;6.00;;;;;;;5.98;56.82;96612.44;4373390;32;20395;-62
2022/03/23 06:19:13;;;;;;;6.50;5.90;;;;;;;5.92;56.05;96614.16;4378926;32;20184;-62
2022/03/23 06:21:39;;;;;;;9.93;6.17;;;;;;;6.02;56.02;96624.13;4364705;32;20177;-62
2022/03/23 06:24:05;;;;;;;10.33;5.40;;;;;;;6.01;55.93;96620.69;4375934;32;20208;-62
2022/03/23 06:26:30;;;;;;;7.33;5.77;;;;;;;6.03;55.98;96621.22;4375284;32;20189;-62
2022/03/23 06:28:55;;;;;;;7.47;5.73;;;;;;;6.12;55.54;96617.22;4384852;32;20180;-62
2022/03/23 06:31:22;;;;;;;8.37;4.80;;;;;;;6.21;55.46;96628.19;4378211;32;20188;-62
2022/03/23 06:33:47;;;;;;;8.97;5.47;;;;;;;6.27;55.33;96626.44;4370269;32;20188;-62
2022/03/23 06:36:12;;;;;;;12.03;5.97;;;;;;;6.56;55.04;96630.72;4379827;32;20287;-62
2022/03/23 06:38:38;;;;;;;8.10;5.77;;;;;;;6.71;54.22;96636.25;4371106;32;20195;-62
2022/03/23 06:41:07;;;;;;;15.40;6.00;;;;;;;6.64;54.41;96632.19;4354099;32;20265;-62
2022/03/23 06:43:33;;;;;;;7.53;5.87;;;;;;;6.83;54.42;96641.50;4360839;32;20224;-62
2022/03/23 06:45:58;;;;;;;9.67;6.10;;;;;;;6.78;53.97;96638.78;4374992;32;20287;-62
2022/03/23 06:48:24;;;;;;;6.93;5.50;;;;;;;6.71;54.01;96644.19;4362138;32;20181;-61
2022/03/23 06:50:49;;;;;;;8.50;6.20;;;;;;;6.84;54.18;96640.47;4387667;32;20278;-62
2022/03/23 06:53:14;;;;;;;10.30;7.00;;;;;;;6.79;54.51;96646.44;4385919;32;20188;-62
2022/03/23 06:55:39;;;;;;;7.53;5.43;;;;;;;6.95;54.78;96644.06;4384473;32;20264;-62
2022/03/23 06:58:05;;;;;;;9.63;6.10;;;;;;;7.07;54.52;96637.69;4385502;32;20184;-62
2022/03/23 07:00:31;;;;;;;10.23;6.47;;;;;;;7.04;53.54;96634.75;4387840;32;26221;-63
2022/03/23 07:02:57;;;;;;;11.60;6.87;;;;;;;7.07;52.90;96637.69;4376946;32;20185;-62
2022/03/23 07:05:22;;;;;;;9.23;5.93;;;;;;;7.18;52.63;96642.09;4365667;32;20272;-62
2022/03/23 07:10:34;;;;;;;6.17;5.40;;;;;;;7.31;51.75;96641.00;4378218;32;20325;-62
2022/03/23 07:13:00;;;;;;;8.80;6.00;;;;;;;7.40;51.24;96639.56;4368518;32;20327;-63
2022/03/23 07:15:26;;;;;;;7.73;6.37;;;;;;;7.40;51.06;96639.56;4374343;32;20399;-62
2022/03/23 07:17:51;;;;;;;7.07;6.40;;;;;;;7.40;51.68;96642.19;4364849;32;20289;-62
2022/03/23 07:20:17;;;;;;;9.17;6.87;;;;;;;7.59;51.55;96640.91;4382794;32;20197;-64
2022/03/23 07:22:43;;;;;;;6.60;6.00;;;;;;;7.65;51.75;96641.00;4374069;32;20176;-62
2022/03/23 07:25:09;;;;;;;11.07;6.07;;;;;;;7.55;52.00;96644.28;4384646;32;20184;-62
2022/03/23 07:27:34;;;;;;;14.97;7.20;;;;;;;7.69;52.61;96648.16;4379952;32;20280;-59
2022/03/23 07:30:00;;;;;;;27.07;7.30;;;;;;;8.27;57.70;96650.31;4391755;32;20321;-59
2022/03/23 07:32:25;;;;;;;23.60;7.77;;;;;;;8.74;61.24;96655.09;4368205;32;20184;-59
2022/03/23 07:34:51;;;;;;;12.37;6.73;;;;;;;8.94;58.01;96646.56;4386611;32;20185;-59
2022/03/23 07:37:16;;;;;;;13.47;6.13;;;;;;;9.33;55.77;96646.44;4364541;32;20181;-59
2022/03/23 07:39:43;;;;;;;8.47;6.33;;;;;;;9.52;55.05;96643.12;4362627;32;20230;-58
2022/03/23 07:42:08;;;;;;;8.73;6.80;;;;;;;9.85;57.91;96641.22;4384573;32;20292;-59
2022/03/23 07:44:33;;;;;;;11.20;7.00;;;;;;;10.00;54.50;96644.75;4367508;32;20289;-59
2022/03/23 07:46:59;;;;;;;9.67;6.87;;;;;;;10.04;51.63;96639.75;4364115;32;20184;-59
2022/03/23 07:49:25;;;;;;;10.17;6.80;;;;;;;10.05;49.44;96646.66;4377939;32;20207;-59
2022/03/23 07:51:51;;;;;;;9.27;6.77;;;;;;;10.12;51.85;96652.53;4376218;32;20169;-59
2022/03/23 07:54:16;;;;;;;11.23;6.90;;;;;;;10.23;50.87;96654.22;4363605;32;20268;-59
2022/03/23 07:56:42;;;;;;;8.17;7.33;;;;;;;10.26;50.58;96651.03;4364584;32;20283;-60
2022/03/23 07:59:07;;;;;;;8.07;7.20;;;;;;;10.35;50.16;96646.06;4379983;32;20192;-58
2022/03/23 08:01:33;;;;;;;8.53;7.60;;;;;;;10.55;48.47;96653.31;4380803;32;20284;-59
2022/03/23 08:03:58;;;;;;;8.43;7.43;;;;;;;10.69;47.90;96657.06;4375056;32;20181;-59
2022/03/23 08:06:26;;;;;;;10.03;7.07;;;;;;;10.70;46.59;96660.50;4380990;32;20177;-59
2022/03/23 08:08:52;;;;;;;12.93;8.80;;;;;;;10.89;47.06;96657.13;4375347;32;20207;-59
2022/03/23 08:11:17;;;;;;;11.70;7.47;;;;;;;11.01;47.27;96655.00;4377591;32;20293;-59
2022/03/23 08:13:42;;;;;;;9.90;7.87;;;;;;;11.26;48.11;96658.78;4377924;32;20237;-58
2022/03/23 08:16:09;;;;;;;8.50;7.53;;;;;;;11.34;46.62;96663.56;4376155;32;20200;-58
2022/03/23 08:18:35;;;;;;;8.17;7.20;;;;;;;11.45;47.13;96667.03;4384256;32;20240;-59
2022/03/23 08:21:00;;;;;;;8.30;7.07;;;;;;;11.47;45.32;96662.25;4384344;32;20228;-59
2022/03/23 08:23:26;;;;;;;8.43;7.60;;;;;;;11.41;45.95;96664.13;4377950;32;20193;-58
2022/03/23 08:25:52;;;;;;;8.87;7.90;;;;;;;11.48;43.25;96659.31;4375120;32;20195;-59
2022/03/23 08:28:18;;;;;;;13.83;7.97;;;;;;;11.53;44.89;96656.66;4355693;32;20234;-59
2022/03/23 08:30:48;;;;;;;8.73;7.97;;;;;;;11.64;44.29;96662.75;4344928;32;20253;-58
2022/03/23 08:33:17;;;;;;;8.40;7.60;;;;;;;11.67;43.38;96667.56;4364574;32;20307;-59
2022/03/23 08:35:43;;;;;;;8.67;7.20;;;;;;;11.74;45.13;96667.28;4349059;32;20196;-58
2022/03/23 08:38:12;;;;;;;8.83;7.90;;;;;;;11.85;44.78;96666.25;4329864;32;20277;-58
2022/03/23 08:40:39;;;;;;;8.90;8.00;;;;;;;11.82;42.08;96666.81;4359693;32;20211;-59
2022/03/23 08:43:05;;;;;;;8.73;7.93;;;;;;;11.94;43.19;96667.31;4374626;32;20210;-59
2022/03/23 08:45:33;;;;;;;10.90;7.90;;;;;;;11.96;39.67;96675.81;4316707;32;26759;-59
2022/03/23 08:48:00;;;;;;;8.63;7.87;;;;;;;12.02;39.32;96670.22;4362781;32;20213;-58
2022/03/23 08:50:28;;;;;;;8.97;8.13;;;;;;;12.05;39.17;96668.91;4351877;32;20268;-59
2022/03/23 08:52:57;;;;;;;8.10;7.37;;;;;;;12.05;39.65;96671.56;4372722;32;20184;-60
2022/03/23 08:55:25;;;;;;;10.63;9.63;;;;;;;12.15;39.61;96674.19;4382646;32;20226;-63
2022/03/23 08:57:53;;;;;;;12.30;8.77;;;;;;;12.00;38.41;96671.56;4338065;32;20235;-63
2022/03/23 09:00:22;;;;;;;11.83;8.80;;;;;;;11.97;38.08;96672.09;4352238;32;20185;-63
2022/03/23 09:02:52;;;;;;;12.43;9.13;;;;;;;11.96;39.14;96675.81;4368128;32;20196;-60
2022/03/23 09:05:23;;;;;;;9.87;8.10;;;;;;;12.06;39.02;96667.81;4360676;32;20184;-63
2022/03/23 09:07:50;;;;;;;9.27;7.87;;;;;;;12.11;40.89;96665.16;4361507;32;20195;-63
2022/03/23 09:10:16;;;;;;;11.17;8.20;;;;;;;12.22;40.98;96664.06;4353884;32;20181;-61
2022/03/23 09:12:44;;;;;;;11.03;8.87;;;;;;;12.48;38.86;96666.62;4331215;32;20189;-62
2022/03/23 09:15:13;;;;;;;11.67;9.50;;;;;;;12.39;37.74;96672.53;4375507;32;20189;-63
2022/03/23 09:17:42;;;;;;;8.47;7.70;;;;;;;12.39;37.75;96671.72;4350070;32;20189;-63
2022/03/23 09:20:09;;;;;;;10.10;9.00;;;;;;;12.77;39.21;96670.25;4362547;32;20235;-64
2022/03/23 09:22:37;;;;;;;11.47;9.43;;;;;;;12.77;37.35;96667.59;4375992;32;20188;-63
2022/03/23 09:25:22;;;;;;;10.20;9.03;;;;;;;12.71;36.19;96666.81;4351248;32;20215;-63
2022/03/23 09:27:49;;;;;;;9.80;8.80;;;;;;;12.68;36.13;96671.88;4353980;32;20259;-63
2022/03/23 09:30:16;;;;;;;8.33;7.73;;;;;;;12.78;36.26;96666.53;4360925;32;20181;-63
2022/03/23 09:32:46;;;;;;;11.47;9.10;;;;;;;12.79;36.13;96662.78;4363851;32;20184;-61
2022/03/23 09:35:16;;;;;;;12.30;8.80;;;;;;;12.98;36.06;96661.09;4334260;32;20193;-62
2022/03/23 09:38:05;;;;;;;11.20;9.33;;;;;;;13.02;35.99;96664.00;4367382;32;20232;-62
2022/03/23 09:40:31;;;;;;;12.03;10.17;;;;;;;13.12;36.67;96661.25;4339552;32;20228;-62
2022/03/23 09:43:05;;;;;;;10.73;8.57;;;;;;;13.17;35.55;96663.13;4338560;32;20200;-62
2022/03/23 09:48:21;;;;;;;10.67;9.40;;;;;;;13.35;35.62;96671.28;4349204;32;20181;-63
2022/03/23 09:50:59;;;;;;;12.93;9.37;;;;;;;13.51;35.49;96658.62;4319194;32;20200;-59
2022/03/23 09:53:26;;;;;;;13.97;9.33;;;;;;;13.66;35.58;96658.53;4372408;32;20222;-61
2022/03/23 09:55:53;;;;;;;10.27;9.07;;;;;;;13.64;35.28;96650.00;4373545;32;20196;-59
2022/03/23 09:58:21;;;;;;;10.50;9.07;;;;;;;13.69;34.50;96649.19;4324065;32;20193;-61
2022/03/23 10:00:49;;;;;;;11.47;10.27;;;;;;;13.79;34.89;96648.28;4319518;32;20186;-62
2022/03/23 10:03:54;;;;;;;13.40;10.07;;;;;;;13.77;34.23;96638.69;4351161;32;20291;-62
2022/03/23 10:06:58;;;;;;;12.93;9.93;;;;;;;14.06;34.20;96648.56;4325209;33;20185;-63
2022/03/23 10:10:01;;;;;;;10.67;9.57;;;;;;;14.13;34.05;96634.88;4298645;33;20301;-61
2022/03/23 10:12:56;;;;;;;12.73;9.90;;;;;;;14.18;33.70;96645.50;4325302;33;20190;-62
2022/03/23 10:16:00;;;;;;;10.83;9.80;;;;;;;14.08;33.90;96641.88;4303138;33;20200;-61
2022/03/23 10:19:02;;;;;;;10.77;9.47;;;;;;;14.26;34.87;96634.19;4328804;32;20189;-62
2022/03/23 10:21:34;;;;;;;11.13;9.53;;;;;;;14.07;34.61;96636.81;4329109;32;20207;-62
2022/03/23 10:24:06;;;;;;;10.97;9.97;;;;;;;14.17;33.41;96639.34;4335169;32;20182;-62
2022/03/23 10:26:36;;;;;;;17.77;10.07;;;;;;;14.60;33.48;96636.75;4303652;32;20245;-62
2022/03/23 10:29:22;;;;;;;10.63;9.73;;;;;;;14.72;32.50;96634.50;4301520;33;20244;-61
2022/03/23 10:31:59;;;;;;;13.03;10.07;;;;;;;14.57;32.78;96629.31;4288574;32;20209;-61
2022/03/23 10:34:49;;;;;;;21.10;11.23;;;;;;;14.43;32.01;96627.34;4306430;33;20227;-61
2022/03/23 10:37:25;;;;;;;11.03;10.07;;;;;;;14.35;32.85;96632.47;4332251;32;20192;-61
2022/03/23 10:39:53;;;;;;;12.47;11.20;;;;;;;14.26;33.69;96632.31;4340202;32;20215;-59
2022/03/23 10:42:20;;;;;;;13.57;12.03;;;;;;;14.42;32.68;96628.44;4317361;32;20227;-61
2022/03/23 10:44:47;;;;;;;11.07;10.00;;;;;;;14.67;32.56;96627.34;4350497;32;20188;-59
2022/03/23 10:47:31;;;;;;;11.83;10.17;;;;;;;14.51;32.58;96622.47;4317223;32;20186;-59
2022/03/23 10:50:20;;;;;;;12.30;10.90;;;;;;;14.40;33.19;96622.56;4329222;32;20192;-60
2022/03/23 10:52:52;;;;;;;11.70;10.50;;;;;;;14.47;33.38;96624.91;4321093;32;20249;-60
2022/03/23 10:55:19;;;;;;;12.33;10.57;;;;;;;14.42;33.09;96609.75;4353022;32;20185;-60
2022/03/23 10:58:04;;;;;;;10.97;9.93;;;;;;;14.58;32.97;96617.56;4337766;32;20193;-59
2022/03/23 11:00:41;;;;;;;11.60;10.50;;;;;;;14.64;32.42;96611.06;4347831;32;20192;-60
2022/03/23 11:03:10;;;;;;;11.67;10.53;;;;;;;14.56;31.62;96614.38;4367451;32;20259;-60
2022/03/23 11:05:59;;;;;;;11.30;10.23;;;;;;;14.63;30.99;96612.94;4352443;32;20189;-60
2022/03/23 11:08:25;;;;;;;11.20;10.20;;;;;;;14.68;31.09;96598.75;4348647;32;20193;-60
2022/03/23 11:16:50;;;;;;;11.93;10.70;;;;;;;14.72;31.19;96602.44;4346096;32;20207;-61
2022/03/23 11:19:23;;;;;;;11.60;10.47;;;;;;;14.86;31.06;96592.63;4349664;32;20201;-62
2022/03/23 11:22:17;;;;;;;15.30;12.33;;;;;;;14.71;31.89;96596.28;4330652;32;20228;-62
2022/03/23 11:24:47;;;;;;;14.73;13.10;;;;;;;14.75;32.00;96583.16;4330218;32;20193;-62
2022/03/23 11:27:18;;;;;;;12.40;11.17;;;;;;;14.69;32.38;96586.97;4351641;32;20188;-61
2022/03/23 11:29:47;;;;;;;12.70;10.30;;;;;;;14.70;32.58;96581.34;4361898;32;20196;-62
2022/03/23 11:32:27;;;;;;;11.27;10.10;;;;;;;14.85;31.42;96580.34;4353880;32;20228;-62
2022/03/23 11:34:58;;;;;;;11.73;9.93;;;;;;;14.75;31.81;96575.94;4361056;32;20197;-62
2022/03/23 11:37:27;;;;;;;13.57;10.87;;;;;;;14.79;31.59;96579.59;4329666;32;20260;-62
2022/03/23 11:40:11;;;;;;;10.80;9.67;;;;;;;14.66;32.15;96583.00;4344629;32;20196;-62
2022/03/23 11:42:39;;;;;;;11.10;10.07;;;;;;;14.91;32.32;96579.19;4351223;32;20263;-62
2022/03/23 11:45:11;;;;;;;11.00;10.00;;;;;;;14.96;31.71;96573.78;4345376;32;20256;-62
2022/03/23 11:47:53;;;;;;;10.60;9.60;;;;;;;15.15;30.67;96572.97;4355768;32;20239;-62
2022/03/23 11:50:56;;;;;;;11.00;10.10;;;;;;;15.06;30.87;96573.59;4333778;32;20196;-62
2022/03/23 11:53:53;;;;;;;12.13;10.93;;;;;;;15.19;30.32;96572.06;4353584;32;20180;-62
2022/03/23 11:56:32;;;;;;;13.00;10.33;;;;;;;14.99;30.82;96565.16;4360433;32;20192;-62
2022/03/23 11:59:21;;;;;;;11.50;9.50;;;;;;;14.97;30.55;96564.66;4320963;32;20177;-62
2022/03/23 12:01:50;;;;;;;12.17;11.03;;;;;;;15.15;31.09;96559.59;4330072;32;20196;-62